sensor_id;sensor_type;location;lat;lon;timestamp;pressure;altitude;pressure_sealevel;temperature;humidity
59103;BME280;43999;51.660;5.616;2023-03-03T00:00:14;102184.00;;;0.76;100.00
59103;BME280;43999;51.660;5.616;2023-03-03T00:02:41;102187.41;;;0.74;100.00
59103;BME280;43999;51.660;5.616;2023-03-03T00:05:09;102198.56;;;0.73;100.00
59103;BME280;43999;51.660;5.616;2023-03-03T00:07:38;102194.28;;;0.71;100.00
59103;BME280;43999;51.660;5.616;2023-03-03T00:10:08;102189.16;;;0.75;100.00
59103;BME280;43999;51.660;5.616;2023-03-03T00:12:46;102201.22;;;0.82;100.00
59103;BME280;43999;51.660;5.616;2023-03-03T00:15:22;102199.50;;;0.79;100.00
59103;BME280;43999;51.660;5.616;2023-03-03T00:17:51;102203.81;;;0.82;100.00
59103;BME280;43999;51.660;5.616;2023-03-03T00:20:39;102196.91;;;0.78;100.00
59103;BME280;43999;51.660;5.616;2023-03-03T00:25:50;102207.34;;;0.88;100.00
59103;BME280;43999;51.660;5.616;2023-03-03T00:28:29;102201.28;;;0.89;100.00
59103;BME280;43999;51.660;5.616;2023-03-03T00:30:59;102203.88;;;0.88;100.00
59103;BME280;43999;51.660;5.616;2023-03-03T00:33:35;102208.13;;;0.83;100.00
59103;BME280;43999;51.660;5.616;2023-03-03T00:38:42;102212.41;;;0.78;100.00
59103;BME280;43999;51.660;5.616;2023-03-03T00:41:26;102202.03;;;0.73;100.00
59103;BME280;43999;51.660;5.616;2023-03-03T00:43:53;102212.41;;;0.78;100.00
59103;BME280;43999;51.660;5.616;2023-03-03T00:46:23;102202.94;;;0.78;100.00
59103;BME280;43999;51.660;5.616;2023-03-03T00:48:53;102206.31;;;0.74;100.00
59103;BME280;43999;51.660;5.616;2023-03-03T00:51:29;102224.34;;;0.71;100.00
59103;BME280;43999;51.660;5.616;2023-03-03T00:53:57;102217.47;;;0.67;100.00
59103;BME280;43999;51.660;5.616;2023-03-03T00:56:29;102216.63;;;0.73;100.00
59103;BME280;43999;51.660;5.616;2023-03-03T00:58:58;102213.22;;;0.75;100.00
59103;BME280;43999;51.660;5.616;2023-03-03T01:01:27;102220.91;;;0.67;100.00
59103;BME280;43999;51.660;5.616;2023-03-03T01:03:56;102230.31;;;0.64;100.00
59103;BME280;43999;51.660;5.616;2023-03-03T01:06:26;102231.16;;;0.63;100.00
59103;BME280;43999;51.660;5.616;2023-03-03T01:08:55;102222.50;;;0.56;100.00
59103;BME280;43999;51.660;5.616;2023-03-03T01:11:27;102226.69;;;0.45;100.00
59103;BME280;43999;51.660;5.616;2023-03-03T01:13:56;102230.06;;;0.39;100.00
59103;BME280;43999;51.660;5.616;2023-03-03T01:16:26;102220.56;;;0.33;100.00
59103;BME280;43999;51.660;5.616;2023-03-03T01:19:02;102238.69;;;0.41;100.00
59103;BME280;43999;51.660;5.616;2023-03-03T01:21:29;102234.47;;;0.51;100.00
59103;BME280;43999;51.660;5.616;2023-03-03T01:23:56;102236.22;;;0.52;100.00
59103;BME280;43999;51.660;5.616;2023-03-03T01:26:24;102238.72;;;0.44;100.00
59103;BME280;43999;51.660;5.616;2023-03-03T01:28:52;102230.94;;;0.40;100.00
59103;BME280;43999;51.660;5.616;2023-03-03T01:31:19;102245.56;;;0.41;100.00
59103;BME280;43999;51.660;5.616;2023-03-03T01:33:50;102234.31;;;0.35;100.00
59103;BME280;43999;51.660;5.616;2023-03-03T01:36:24;102233.47;;;0.37;100.00
59103;BME280;43999;51.660;5.616;2023-03-03T01:38:54;102234.34;;;0.39;100.00
59103;BME280;43999;51.660;5.616;2023-03-03T01:41:26;102248.06;;;0.34;100.00
59103;BME280;43999;51.660;5.616;2023-03-03T01:43:56;102234.25;;;0.31;100.00
59103;BME280;43999;51.660;5.616;2023-03-03T01:46:36;102250.59;;;0.30;100.00
59103;BME280;43999;51.660;5.616;2023-03-03T01:49:16;102245.50;;;0.34;100.00
59103;BME280;43999;51.660;5.616;2023-03-03T01:51:59;102244.59;;;0.32;100.00
59103;BME280;43999;51.660;5.616;2023-03-03T01:54:30;102245.50;;;0.34;100.00
59103;BME280;43999;51.660;5.616;2023-03-03T01:57:05;102238.53;;;0.29;100.00
59103;BME280;43999;51.660;5.616;2023-03-03T01:59:48;102239.41;;;0.29;100.00
59103;BME280;43999;51.660;5.616;2023-03-03T02:02:17;102241.22;;;0.38;100.00
59103;BME280;43999;51.660;5.616;2023-03-03T02:04:47;102234.38;;;0.40;100.00
59103;BME280;43999;51.660;5.616;2023-03-03T02:07:15;102244.69;;;0.42;100.00
59103;BME280;43999;51.660;5.616;2023-03-03T02:12:40;102250.69;;;0.38;100.00
59103;BME280;43999;51.660;5.616;2023-03-03T02:15:29;102241.19;;;0.33;100.00
59103;BME280;43999;51.660;5.616;2023-03-03T02:18:04;102251.47;;;0.30;100.00
59103;BME280;43999;51.660;5.616;2023-03-03T02:26:20;102247.16;;;0.31;100.00
59103;BME280;43999;51.660;5.616;2023-03-03T02:28:54;102249.75;;;0.32;100.00
59103;BME280;43999;51.660;5.616;2023-03-03T02:31:26;102247.19;;;0.34;100.00
59103;BME280;43999;51.660;5.616;2023-03-03T02:33:56;102244.59;;;0.32;100.00
59103;BME280;43999;51.660;5.616;2023-03-03T02:36:30;102247.22;;;0.35;100.00
59103;BME280;43999;51.660;5.616;2023-03-03T02:39:19;102239.47;;;0.35;100.00
59103;BME280;43999;51.660;5.616;2023-03-03T02:42:02;102243.81;;;0.40;100.00
59103;BME280;43999;51.660;5.616;2023-03-03T02:44:39;102239.56;;;0.43;100.00
59103;BME280;43999;51.660;5.616;2023-03-03T02:47:06;102237.84;;;0.42;100.00
59103;BME280;43999;51.660;5.616;2023-03-03T02:49:35;102243.94;;;0.50;100.00
59103;BME280;43999;51.660;5.616;2023-03-03T02:52:05;102231.00;;;0.47;100.00
59103;BME280;43999;51.660;5.616;2023-03-03T02:54:33;102237.06;;;0.51;100.00
59103;BME280;43999;51.660;5.616;2023-03-03T02:57:03;102237.88;;;0.45;100.00
59103;BME280;43999;51.660;5.616;2023-03-03T02:59:32;102236.13;;;0.44;100.00
59103;BME280;43999;51.660;5.616;2023-03-03T03:02:07;102239.53;;;0.42;100.00
59103;BME280;43999;51.660;5.616;2023-03-03T03:04:34;102238.69;;;0.41;100.00
59103;BME280;43999;51.660;5.616;2023-03-03T03:07:03;102236.09;;;0.41;100.00
59103;BME280;43999;51.660;5.616;2023-03-03T03:09:34;102238.66;;;0.40;100.00
59103;BME280;43999;51.660;5.616;2023-03-03T03:12:03;102243.84;;;0.43;100.00
59103;BME280;43999;51.660;5.616;2023-03-03T03:14:34;102250.75;;;0.42;100.00
59103;BME280;43999;51.660;5.616;2023-03-03T03:17:05;102238.56;;;0.30;100.00
59103;BME280;43999;51.660;5.616;2023-03-03T03:19:32;102250.72;;;0.39;100.00
59103;BME280;43999;51.660;5.616;2023-03-03T03:22:03;102253.16;;;0.28;100.00
59103;BME280;43999;51.660;5.616;2023-03-03T03:24:33;102263.41;;;0.24;100.00
59103;BME280;43999;51.660;5.616;2023-03-03T03:27:04;102253.97;;;0.26;100.00
59103;BME280;43999;51.660;5.616;2023-03-03T03:29:32;102257.38;;;0.23;100.00
59103;BME280;43999;51.660;5.616;2023-03-03T03:32:00;102253.91;;;0.20;100.00
59103;BME280;43999;51.660;5.616;2023-03-03T03:34:28;102255.56;;;0.14;100.00
59103;BME280;43999;51.660;5.616;2023-03-03T03:36:56;102255.53;;;0.10;100.00
59103;BME280;43999;51.660;5.616;2023-03-03T03:39:26;102256.41;;;0.12;100.00
59103;BME280;43999;51.660;5.616;2023-03-03T03:41:53;102251.28;;;0.15;100.00
59103;BME280;43999;51.660;5.616;2023-03-03T03:44:21;102251.19;;;0.09;100.00
59103;BME280;43999;51.660;5.616;2023-03-03T03:46:53;102260.72;;;0.14;100.00
59103;BME280;43999;51.660;5.616;2023-03-03T03:49:22;102248.72;;;0.16;100.00
59103;BME280;43999;51.660;5.616;2023-03-03T03:51:54;102259.97;;;0.23;100.00
59103;BME280;43999;51.660;5.616;2023-03-03T03:54:25;102255.59;;;0.16;100.00
59103;BME280;43999;51.660;5.616;2023-03-03T03:56:54;102253.00;;;0.14;100.00
59103;BME280;43999;51.660;5.616;2023-03-03T03:59:22;102256.50;;;0.20;100.00
59103;BME280;43999;51.660;5.616;2023-03-03T04:01:52;102265.06;;;0.20;100.00
59103;BME280;43999;51.660;5.616;2023-03-03T04:04:20;102257.34;;;0.20;100.00
59103;BME280;43999;51.660;5.616;2023-03-03T04:06:51;102255.63;;;0.19;100.00
59103;BME280;43999;51.660;5.616;2023-03-03T04:09:22;102265.06;;;0.18;100.00
59103;BME280;43999;51.660;5.616;2023-03-03T04:11:49;102256.47;;;0.18;100.00
59103;BME280;43999;51.660;5.616;2023-03-03T04:14:18;102253.16;;;0.27;100.00
59103;BME280;43999;51.660;5.616;2023-03-03T04:16:48;102248.81;;;0.24;100.00
59103;BME280;43999;51.660;5.616;2023-03-03T04:19:16;102254.06;;;0.33;100.00
59103;BME280;43999;51.660;5.616;2023-03-03T04:21:44;102252.47;;;0.45;100.00
59103;BME280;43999;51.660;5.616;2023-03-03T04:24:12;102254.25;;;0.50;100.00
59103;BME280;43999;51.660;5.616;2023-03-03T04:26:41;102258.56;;;0.51;100.00
59103;BME280;43999;51.660;5.616;2023-03-03T04:29:10;102261.97;;;0.47;100.00
59103;BME280;43999;51.660;5.616;2023-03-03T04:31:42;102267.91;;;0.43;100.00
59103;BME280;43999;51.660;5.616;2023-03-03T04:34:13;102263.59;;;0.39;100.00
59103;BME280;43999;51.660;5.616;2023-03-03T04:36:43;102262.69;;;0.35;100.00
59103;BME280;43999;51.660;5.616;2023-03-03T04:39:11;102260.16;;;0.40;100.00
59103;BME280;43999;51.660;5.616;2023-03-03T04:41:40;102259.38;;;0.47;100.00
59103;BME280;43999;51.660;5.616;2023-03-03T04:44:08;102264.56;;;0.50;100.00
59103;BME280;43999;51.660;5.616;2023-03-03T04:46:36;102260.38;;;0.60;100.00
59103;BME280;43999;51.660;5.616;2023-03-03T04:49:04;102256.09;;;0.61;100.00
59103;BME280;43999;51.660;5.616;2023-03-03T04:51:36;102263.81;;;0.59;100.00
59103;BME280;43999;51.660;5.616;2023-03-03T04:54:05;102272.41;;;0.58;100.00
59103;BME280;43999;51.660;5.616;2023-03-03T04:56:34;102259.47;;;0.57;100.00
59103;BME280;43999;51.660;5.616;2023-03-03T04:59:02;102262.13;;;0.63;100.00
59103;BME280;43999;51.660;5.616;2023-03-03T05:01:29;102272.47;;;0.64;100.00
59103;BME280;43999;51.660;5.616;2023-03-03T05:03:57;102264.66;;;0.60;100.00
59103;BME280;43999;51.660;5.616;2023-03-03T05:06:24;102257.81;;;0.63;100.00
59103;BME280;43999;51.660;5.616;2023-03-03T05:08:52;102271.59;;;0.64;100.00
59103;BME280;43999;51.660;5.616;2023-03-03T05:11:26;102274.16;;;0.61;100.00
59103;BME280;43999;51.660;5.616;2023-03-03T05:13:57;102284.56;;;0.68;100.00
59103;BME280;43999;51.660;5.616;2023-03-03T05:16:24;102280.28;;;0.72;100.00
59103;BME280;43999;51.660;5.616;2023-03-03T05:18:52;102279.47;;;0.75;100.00
59103;BME280;43999;51.660;5.616;2023-03-03T05:21:20;102280.31;;;0.77;100.00
59103;BME280;43999;51.660;5.616;2023-03-03T05:23:48;102275.13;;;0.72;100.00
59103;BME280;43999;51.660;5.616;2023-03-03T05:26:16;102279.50;;;0.79;100.00
59103;BME280;43999;51.660;5.616;2023-03-03T05:28:44;102277.78;;;0.80;100.00
59103;BME280;43999;51.660;5.616;2023-03-03T05:31:11;102270.03;;;0.78;100.00
59103;BME280;43999;51.660;5.616;2023-03-03T05:33:40;102270.00;;;0.77;100.00
59103;BME280;43999;51.660;5.616;2023-03-03T05:36:08;102270.84;;;0.76;100.00
59103;BME280;43999;51.660;5.616;2023-03-03T05:38:38;102269.19;;;0.79;100.00
59103;BME280;43999;51.660;5.616;2023-03-03T05:41:06;102272.63;;;0.80;100.00
59103;BME280;43999;51.660;5.616;2023-03-03T05:43:34;102279.53;;;0.82;100.00
59103;BME280;43999;51.660;5.616;2023-03-03T05:46:02;102273.53;;;0.86;100.00
59103;BME280;43999;51.660;5.616;2023-03-03T05:48:37;102285.59;;;0.89;100.00
59103;BME280;43999;51.660;5.616;2023-03-03T05:51:06;102280.47;;;0.91;100.00
59103;BME280;43999;51.660;5.616;2023-03-03T05:53:40;102278.72;;;0.89;100.00
59103;BME280;43999;51.660;5.616;2023-03-03T05:56:10;102282.22;;;0.93;100.00
59103;BME280;43999;51.660;5.616;2023-03-03T05:58:38;102279.59;;;0.90;100.00
59103;BME280;43999;51.660;5.616;2023-03-03T06:01:07;102286.50;;;0.94;100.00
59103;BME280;43999;51.660;5.616;2023-03-03T06:03:35;102287.41;;;0.96;100.00
59103;BME280;43999;51.660;5.616;2023-03-03T06:06:04;102286.56;;;1.00;100.00
59103;BME280;43999;51.660;5.616;2023-03-03T06:08:50;102289.09;;;0.96;100.00
59103;BME280;43999;51.660;5.616;2023-03-03T06:11:27;102290.81;;;0.95;100.00
59103;BME280;43999;51.660;5.616;2023-03-03T06:13:58;102294.22;;;0.93;100.00
59103;BME280;43999;51.660;5.616;2023-03-03T06:16:31;102301.16;;;0.95;100.00
59103;BME280;43999;51.660;5.616;2023-03-03T06:19:04;102303.75;;;0.98;100.00
59103;BME280;43999;51.660;5.616;2023-03-03T06:21:36;102304.63;;;0.99;100.00
59103;BME280;43999;51.660;5.616;2023-03-03T06:24:08;102302.00;;;0.94;100.00
59103;BME280;43999;51.660;5.616;2023-03-03T06:26:37;102308.94;;;1.00;100.00
59103;BME280;43999;51.660;5.616;2023-03-03T06:29:13;102313.25;;;1.01;100.00
59103;BME280;43999;51.660;5.616;2023-03-03T06:31:41;102319.25;;;1.00;100.00
59103;BME280;43999;51.660;5.616;2023-03-03T06:34:10;102314.97;;;1.00;100.00
59103;BME280;43999;51.660;5.616;2023-03-03T06:36:37;102334.81;;;1.04;100.00
59103;BME280;43999;51.660;5.616;2023-03-03T06:39:04;102327.91;;;1.03;100.00
59103;BME280;43999;51.660;5.616;2023-03-03T06:41:34;102332.22;;;1.04;100.00
59103;BME280;43999;51.660;5.616;2023-03-03T06:44:08;102331.44;;;1.13;100.00
59103;BME280;43999;51.660;5.616;2023-03-03T06:46:38;102336.59;;;1.12;100.00
59103;BME280;43999;51.660;5.616;2023-03-03T06:49:14;102339.25;;;1.18;100.00
59103;BME280;43999;51.660;5.616;2023-03-03T06:51:42;102336.66;;;1.16;100.00
59103;BME280;43999;51.660;5.616;2023-03-03T06:54:19;102347.84;;;1.18;100.00
59103;BME280;43999;51.660;5.616;2023-03-03T06:56:52;102342.75;;;1.28;100.00
59103;BME280;43999;51.660;5.616;2023-03-03T06:59:22;102352.19;;;1.22;100.00
59103;BME280;43999;51.660;5.616;2023-03-03T07:01:52;102345.28;;;1.20;100.00
59103;BME280;43999;51.660;5.616;2023-03-03T07:04:29;102347.84;;;1.18;100.00
59103;BME280;43999;51.660;5.616;2023-03-03T07:07:20;102352.16;;;1.18;100.00
59103;BME280;43999;51.660;5.616;2023-03-03T07:09:50;102353.03;;;1.21;100.00
59103;BME280;43999;51.660;5.616;2023-03-03T07:12:29;102357.34;;;1.22;100.00
59103;BME280;43999;51.660;5.616;2023-03-03T07:15:27;102358.25;;;1.26;100.00
59103;BME280;43999;51.660;5.616;2023-03-03T07:17:58;102354.81;;;1.25;100.00
59103;BME280;43999;51.660;5.616;2023-03-03T07:20:46;102352.25;;;1.33;100.00
59103;BME280;43999;51.660;5.616;2023-03-03T07:25:53;102372.03;;;1.28;100.00
59103;BME280;43999;51.660;5.616;2023-03-03T07:28:25;102369.50;;;1.34;100.00
59103;BME280;43999;51.660;5.616;2023-03-03T07:30:56;102372.94;;;1.35;100.00
59103;BME280;43999;51.660;5.616;2023-03-03T07:33:42;102369.50;;;1.34;100.00
59103;BME280;43999;51.660;5.616;2023-03-03T07:36:35;102369.50;;;1.36;100.00
59103;BME280;43999;51.660;5.616;2023-03-03T07:39:30;102376.44;;;1.38;100.00
59103;BME280;43999;51.660;5.616;2023-03-03T07:42:21;102374.72;;;1.40;100.00
59103;BME280;43999;51.660;5.616;2023-03-03T07:44:59;102385.94;;;1.44;100.00
59103;BME280;43999;51.660;5.616;2023-03-03T07:50:00;102384.25;;;1.48;100.00
59103;BME280;43999;51.660;5.616;2023-03-03T07:52:56;102389.47;;;1.51;100.00
59103;BME280;43999;51.660;5.616;2023-03-03T07:55:38;102392.09;;;1.55;100.00
59103;BME280;43999;51.660;5.616;2023-03-03T08:03:43;102401.53;;;1.55;100.00
59103;BME280;43999;51.660;5.616;2023-03-03T08:06:37;102406.66;;;1.52;100.00
59103;BME280;43999;51.660;5.616;2023-03-03T08:14:36;102407.69;;;1.69;100.00
59103;BME280;43999;51.660;5.616;2023-03-03T08:17:16;102396.41;;;1.61;100.00
59103;BME280;43999;51.660;5.616;2023-03-03T08:19:52;102398.97;;;1.59;100.00
59103;BME280;43999;51.660;5.616;2023-03-03T08:22:32;102406.78;;;1.64;100.00
59103;BME280;43999;51.660;5.616;2023-03-03T08:24:59;102413.75;;;1.71;100.00
59103;BME280;43999;51.660;5.616;2023-03-03T08:27:28;102416.28;;;1.68;100.00
59103;BME280;43999;51.660;5.616;2023-03-03T08:29:55;102431.84;;;1.73;100.00
59103;BME280;43999;51.660;5.616;2023-03-03T08:32:24;102431.88;;;1.76;100.00
59103;BME280;43999;51.660;5.616;2023-03-03T08:34:52;102429.22;;;1.70;100.00
59103;BME280;43999;51.660;5.616;2023-03-03T08:37:21;102443.00;;;1.69;100.00
59103;BME280;43999;51.660;5.616;2023-03-03T08:39:50;102420.59;;;1.65;100.00
59103;BME280;43999;51.660;5.616;2023-03-03T08:42:17;102424.03;;;1.65;100.00
59103;BME280;43999;51.660;5.616;2023-03-03T08:44:46;102433.53;;;1.69;100.00
59103;BME280;43999;51.660;5.616;2023-03-03T08:47:14;102440.44;;;1.70;100.00
59103;BME280;43999;51.660;5.616;2023-03-03T08:49:42;102439.69;;;1.84;100.00
59103;BME280;43999;51.660;5.616;2023-03-03T08:52:10;102431.97;;;1.90;100.00
59103;BME280;43999;51.660;5.616;2023-03-03T08:54:37;102433.72;;;1.92;100.00
59103;BME280;43999;51.660;5.616;2023-03-03T08:57:05;102437.22;;;1.99;100.00
59103;BME280;43999;51.660;5.616;2023-03-03T08:59:36;102442.41;;;2.01;100.00
59103;BME280;43999;51.660;5.616;2023-03-03T09:02:06;102445.00;;;2.04;100.00
59103;BME280;43999;51.660;5.616;2023-03-03T09:04:37;102443.34;;;2.13;100.00
59103;BME280;43999;51.660;5.616;2023-03-03T09:07:05;102450.28;;;2.18;100.00
59103;BME280;43999;51.660;5.616;2023-03-03T09:09:37;102446.91;;;2.25;100.00
59103;BME280;43999;51.660;5.616;2023-03-03T09:12:26;102450.34;;;2.27;100.00
59103;BME280;43999;51.660;5.616;2023-03-03T09:14:59;102440.84;;;2.26;100.00
59103;BME280;43999;51.660;5.616;2023-03-03T09:17:53;102445.22;;;2.35;100.00
59103;BME280;43999;51.660;5.616;2023-03-03T09:20:37;102443.50;;;2.37;100.00
59103;BME280;43999;51.660;5.616;2023-03-03T09:23:33;102447.06;;;2.49;100.00
59103;BME280;43999;51.660;5.616;2023-03-03T09:29:14;102451.44;;;2.67;100.00
59103;BME280;43999;51.660;5.616;2023-03-03T09:32:01;102456.59;;;2.61;100.00
59103;BME280;43999;51.660;5.616;2023-03-03T09:34:54;102462.66;;;2.62;100.00
59103;BME280;43999;51.660;5.616;2023-03-03T09:37:37;102460.06;;;2.66;100.00
59103;BME280;43999;51.660;5.616;2023-03-03T09:40:41;102456.59;;;2.66;100.00
59103;BME280;43999;51.660;5.616;2023-03-03T09:49:26;102472.28;;;2.94;100.00
59103;BME280;43999;51.660;5.616;2023-03-03T09:52:08;102463.66;;;2.98;100.00
59103;BME280;43999;51.660;5.616;2023-03-03T10:03:50;102456.84;;;3.29;100.00
59103;BME280;43999;51.660;5.616;2023-03-03T10:14:58;102463.81;;;3.49;100.00
59103;BME280;43999;51.660;5.616;2023-03-03T10:17:51;102466.41;;;3.52;100.00
59103;BME280;43999;51.660;5.616;2023-03-03T10:23:55;102475.91;;;3.62;100.00
59103;BME280;43999;51.660;5.616;2023-03-03T10:33:15;102469.88;;;3.63;100.00
59103;BME280;43999;51.660;5.616;2023-03-03T10:36:19;102473.31;;;3.74;100.00
59103;BME280;43999;51.660;5.616;2023-03-03T10:50:05;102462.09;;;3.88;100.00
59103;BME280;43999;51.660;5.616;2023-03-03T11:16:05;102469.66;;;4.99;100.00
59103;BME280;43999;51.660;5.616;2023-03-03T11:30:46;102461.63;;;5.41;100.00
59103;BME280;43999;51.660;5.616;2023-03-03T11:33:27;102448.53;;;5.54;100.00
59103;BME280;43999;51.660;5.616;2023-03-03T11:39:19;102441.09;;;6.21;100.00
59103;BME280;43999;51.660;5.616;2023-03-03T11:44:48;102445.53;;;6.88;100.00
59103;BME280;43999;51.660;5.616;2023-03-03T11:47:46;102447.66;;;7.23;100.00
59103;BME280;43999;51.660;5.616;2023-03-03T11:53:31;102447.94;;;7.65;100.00
59103;BME280;43999;51.660;5.616;2023-03-03T11:59:48;102447.81;;;7.73;96.74
59103;BME280;43999;51.660;5.616;2023-03-03T12:08:31;102435.97;;;6.90;99.72
59103;BME280;43999;51.660;5.616;2023-03-03T12:11:17;102436.53;;;7.12;100.00
59103;BME280;43999;51.660;5.616;2023-03-03T12:16:57;102426.75;;;7.28;99.89
59103;BME280;43999;51.660;5.616;2023-03-03T12:28:10;102415.59;;;8.22;95.11
59103;BME280;43999;51.660;5.616;2023-03-03T12:40:13;102408.09;;;9.69;88.47
59103;BME280;43999;51.660;5.616;2023-03-03T12:43:05;102405.56;;;10.01;85.21
59103;BME280;43999;51.660;5.616;2023-03-03T12:51:26;102396.28;;;9.87;81.93
59103;BME280;43999;51.660;5.616;2023-03-03T12:56:59;102385.25;;;9.76;81.37
59103;BME280;43999;51.660;5.616;2023-03-03T13:00:42;102386.19;;;9.74;78.51
59103;BME280;43999;51.660;5.616;2023-03-03T13:05:44;102388.63;;;9.45;80.45
59103;BME280;43999;51.660;5.616;2023-03-03T13:19:57;102376.28;;;9.85;80.67
59103;BME280;43999;51.660;5.616;2023-03-03T13:28:33;102367.75;;;10.44;78.03
59103;BME280;43999;51.660;5.616;2023-03-03T13:31:07;102375.81;;;10.36;78.08
59103;BME280;43999;51.660;5.616;2023-03-03T13:33:37;102355.31;;;10.51;74.31
59103;BME280;43999;51.660;5.616;2023-03-03T13:36:15;102363.56;;;10.67;73.11
59103;BME280;43999;51.660;5.616;2023-03-03T13:42:07;102366.94;;;11.27;71.15
59103;BME280;43999;51.660;5.616;2023-03-03T13:44:42;102373.03;;;11.56;70.28
59103;BME280;43999;51.660;5.616;2023-03-03T13:47:17;102358.00;;;11.59;68.12
59103;BME280;43999;51.660;5.616;2023-03-03T13:52:42;102362.59;;;12.05;69.77
59103;BME280;43999;51.660;5.616;2023-03-03T14:04:21;102348.91;;;10.89;68.44
59103;BME280;43999;51.660;5.616;2023-03-03T14:07:48;102357.66;;;10.60;69.07
59103;BME280;43999;51.660;5.616;2023-03-03T14:10:40;102353.28;;;10.29;71.37
59103;BME280;43999;51.660;5.616;2023-03-03T14:13:14;102353.88;;;10.08;71.83
59103;BME280;43999;51.660;5.616;2023-03-03T14:18:39;102348.88;;;9.65;72.71
59103;BME280;43999;51.660;5.616;2023-03-03T14:21:20;102347.47;;;9.52;74.48
59103;BME280;43999;51.660;5.616;2023-03-03T14:24:14;102341.72;;;9.72;76.12
59103;BME280;43999;51.660;5.616;2023-03-03T14:26:55;102333.16;;;9.98;73.64
59103;BME280;43999;51.660;5.616;2023-03-03T14:31:58;102328.59;;;10.38;72.01
59103;BME280;43999;51.660;5.616;2023-03-03T14:34:36;102332.47;;;10.54;71.35
59103;BME280;43999;51.660;5.616;2023-03-03T14:37:24;102337.13;;;10.74;69.10
59103;BME280;43999;51.660;5.616;2023-03-03T14:40:20;102326.06;;;10.65;68.65
59103;BME280;43999;51.660;5.616;2023-03-03T14:43:54;102325.91;;;10.41;69.52
59103;BME280;43999;51.660;5.616;2023-03-03T14:45:55;102335.34;;;11.03;69.70
59103;BME280;43999;51.660;5.616;2023-03-03T14:48:26;102333.00;;;11.74;66.45
59103;BME280;43999;51.660;5.616;2023-03-03T14:51:29;102322.66;;;12.66;65.63
59103;BME280;43999;51.660;5.616;2023-03-03T14:54:29;102323.13;;;13.62;61.31
59103;BME280;43999;51.660;5.616;2023-03-03T14:59:34;102324.03;;;12.98;57.79
59103;BME280;43999;51.660;5.616;2023-03-03T15:04:45;102317.78;;;11.84;59.71
59103;BME280;43999;51.660;5.616;2023-03-03T15:07:32;102317.53;;;11.13;60.51
59103;BME280;43999;51.660;5.616;2023-03-03T15:10:04;102301.13;;;10.51;62.34
59103;BME280;43999;51.660;5.616;2023-03-03T15:12:35;102304.09;;;10.08;64.61
59103;BME280;43999;51.660;5.616;2023-03-03T15:15:10;102310.38;;;9.69;66.66
59103;BME280;43999;51.660;5.616;2023-03-03T15:20:44;102299.59;;;9.14;70.13
59103;BME280;43999;51.660;5.616;2023-03-03T15:26:04;102298.31;;;9.63;69.60
59103;BME280;43999;51.660;5.616;2023-03-03T15:46:03;102283.69;;;8.86;71.59
59103;BME280;43999;51.660;5.616;2023-03-03T15:52:13;102274.16;;;8.44;72.80
59103;BME280;43999;51.660;5.616;2023-03-03T16:03:42;102269.75;;;8.48;76.10
59103;BME280;43999;51.660;5.616;2023-03-03T16:06:46;102265.31;;;8.51;76.17
59103;BME280;43999;51.660;5.616;2023-03-03T16:11:57;102272.63;;;9.10;73.73
59103;BME280;43999;51.660;5.616;2023-03-03T16:18:05;102277.66;;;8.84;73.58
59103;BME280;43999;51.660;5.616;2023-03-03T16:23:45;102275.06;;;8.43;75.65
59103;BME280;43999;51.660;5.616;2023-03-03T16:26:42;102276.84;;;8.39;75.46
59103;BME280;43999;51.660;5.616;2023-03-03T16:29:34;102280.06;;;8.10;77.30
59103;BME280;43999;51.660;5.616;2023-03-03T16:35:17;102284.41;;;7.66;80.16
59103;BME280;43999;51.660;5.616;2023-03-03T16:38:44;102288.16;;;7.51;80.55
59103;BME280;43999;51.660;5.616;2023-03-03T16:46:28;102296.91;;;6.94;84.89
59103;BME280;43999;51.660;5.616;2023-03-03T16:49:02;102300.75;;;6.71;86.00
59103;BME280;43999;51.660;5.616;2023-03-03T16:52:06;102312.16;;;6.61;88.41
59103;BME280;43999;51.660;5.616;2023-03-03T16:54:43;102307.09;;;6.49;88.91
59103;BME280;43999;51.660;5.616;2023-03-03T17:14:07;102320.53;;;6.15;91.00
59103;BME280;43999;51.660;5.616;2023-03-03T17:22:25;102331.13;;;5.99;92.53
59103;BME280;43999;51.660;5.616;2023-03-03T17:38:40;102348.69;;;5.74;93.25
59103;BME280;43999;51.660;5.616;2023-03-03T17:44:24;102354.78;;;5.71;93.44
59103;BME280;43999;51.660;5.616;2023-03-03T17:47:15;102353.13;;;5.66;93.44
59103;BME280;43999;51.660;5.616;2023-03-03T17:50:32;102366.13;;;5.66;92.64
59103;BME280;43999;51.660;5.616;2023-03-03T17:56:15;102363.50;;;5.69;92.63
59103;BME280;43999;51.660;5.616;2023-03-03T18:04:54;102378.19;;;5.70;91.80
59103;BME280;43999;51.660;5.616;2023-03-03T18:07:28;102380.84;;;5.65;93.22
59103;BME280;43999;51.660;5.616;2023-03-03T18:12:57;102382.63;;;5.60;93.86
59103;BME280;43999;51.660;5.616;2023-03-03T18:21:28;102380.09;;;5.52;93.80
59103;BME280;43999;51.660;5.616;2023-03-03T18:32:47;102398.31;;;5.49;92.15
59103;BME280;43999;51.660;5.616;2023-03-03T18:38:27;102393.22;;;5.35;93.06
59103;BME280;43999;51.660;5.616;2023-03-03T18:41:09;102392.41;;;5.29;93.18
59103;BME280;43999;51.660;5.616;2023-03-03T18:49:06;102399.44;;;5.16;93.29
59103;BME280;43999;51.660;5.616;2023-03-03T18:57:09;102402.03;;;5.16;93.09
59103;BME280;43999;51.660;5.616;2023-03-03T18:59:39;102409.81;;;5.16;94.40
59103;BME280;43999;51.660;5.616;2023-03-03T19:05:05;102408.94;;;5.14;94.28
59103;BME280;43999;51.660;5.616;2023-03-03T19:12:58;102415.84;;;5.23;93.52
59103;BME280;43999;51.660;5.616;2023-03-03T19:18:13;102408.91;;;5.20;94.40
59103;BME280;43999;51.660;5.616;2023-03-03T19:23:45;102408.91;;;5.18;93.33
59103;BME280;43999;51.660;5.616;2023-03-03T19:35:27;102425.44;;;5.13;94.26
59103;BME280;43999;51.660;5.616;2023-03-03T19:40:57;102404.63;;;5.14;94.63